createdAt,value
2023-05-15T00:00:37.199Z,37.55
2023-05-15T00:03:09.696Z,37.47
2023-05-15T00:05:40.893Z,37.75
2023-05-15T00:08:13.852Z,38.95
2023-05-15T00:10:57.452Z,38.67
2023-05-15T00:13:32.266Z,38.79
2023-05-15T00:16:05.497Z,38.83
2023-05-15T00:18:37.708Z,38.10
2023-05-15T00:21:08.741Z,36.70
2023-05-15T00:23:39.949Z,38.18
2023-05-15T00:26:13.037Z,38.53
2023-05-15T00:28:46.092Z,40.06
2023-05-15T00:31:18.884Z,40.71
2023-05-15T00:33:51.054Z,41.06
2023-05-15T00:36:24.183Z,40.81
2023-05-15T00:38:57.117Z,41.05
2023-05-15T00:41:30.787Z,41.53
2023-05-15T00:44:05.718Z,42.02
2023-05-15T00:46:39.844Z,42.26
2023-05-15T00:49:15.561Z,42.84
2023-05-15T00:51:47.706Z,43.39
2023-05-15T00:54:20.818Z,42.75
2023-05-15T00:56:53.705Z,43.64
2023-05-15T00:59:29.364Z,43.54
2023-05-15T01:02:01.746Z,44.52
2023-05-15T01:04:34.807Z,44.08
2023-05-15T01:07:07.398Z,43.38
2023-05-15T01:09:40.992Z,43.28
2023-05-15T01:12:15.024Z,42.32
2023-05-15T01:14:47.845Z,41.94
2023-05-15T01:17:19.934Z,42.18
2023-05-15T01:19:55.268Z,42.20
2023-05-15T01:22:48.651Z,42.56
2023-05-15T01:25:46.474Z,43.74
2023-05-15T01:28:28.964Z,44.88
2023-05-15T01:31:08.380Z,44.49
2023-05-15T01:33:46.416Z,43.56
2023-05-15T01:36:37.842Z,41.98
2023-05-15T01:39:11.778Z,39.29
2023-05-15T01:42:19.115Z,36.42
2023-05-15T01:44:57.502Z,34.10
2023-05-15T01:47:37.332Z,32.87
2023-05-15T01:50:12.878Z,32.30
2023-05-15T01:52:49.989Z,32.25
2023-05-15T01:55:24.252Z,32.50
2023-05-15T01:57:58.074Z,32.81
2023-05-15T02:00:32.114Z,33.11
2023-05-15T02:03:05.440Z,33.84
2023-05-15T02:05:39.248Z,33.76
2023-05-15T02:08:12.246Z,33.95
2023-05-15T02:10:45.004Z,33.76
2023-05-15T02:13:19.099Z,32.50
2023-05-15T02:15:50.614Z,31.88
2023-05-15T02:18:23.543Z,32.55
2023-05-15T02:20:56.309Z,32.71
2023-05-15T02:23:28.526Z,32.79
2023-05-15T02:26:24.037Z,31.85
2023-05-15T02:29:02.037Z,32.55
2023-05-15T02:31:58.720Z,32.77
2023-05-15T02:34:38.996Z,32.60
2023-05-15T02:37:18.042Z,32.93
2023-05-15T02:39:56.023Z,33.05
2023-05-15T02:42:29.839Z,33.93
2023-05-15T02:45:03.938Z,32.38
2023-05-15T02:47:38.011Z,33.16
2023-05-15T02:50:10.981Z,33.91
2023-05-15T02:52:43.839Z,34.36
2023-05-15T02:55:16.992Z,34.83
2023-05-15T02:57:50.147Z,35.20
2023-05-15T03:00:20.168Z,34.57
2023-05-15T03:02:49.165Z,34.86
2023-05-15T03:05:18.479Z,34.18
2023-05-15T03:07:47.425Z,34.68
2023-05-15T03:10:16.892Z,34.78
2023-05-15T03:12:46.152Z,33.19
2023-05-15T03:15:15.185Z,35.21
2023-05-15T03:17:44.509Z,34.23
2023-05-15T03:20:15.094Z,33.89
2023-05-15T03:22:44.256Z,33.67
2023-05-15T03:25:13.727Z,34.00
2023-05-15T03:27:42.915Z,33.84
2023-05-15T03:30:12.370Z,34.26
2023-05-15T03:32:41.625Z,34.74
2023-05-15T03:35:11.618Z,34.90
2023-05-15T03:37:40.946Z,35.17
2023-05-15T03:40:10.280Z,33.59
2023-05-15T03:42:40.080Z,33.09
2023-05-15T03:45:13.273Z,33.09
2023-05-15T03:47:43.887Z,32.27
2023-05-15T03:50:13.309Z,32.17
2023-05-15T03:52:42.514Z,31.78
2023-05-15T03:55:11.734Z,32.86
2023-05-15T03:57:42.688Z,32.19
2023-05-15T04:00:12.283Z,32.55
2023-05-15T04:02:42.113Z,31.95
2023-05-15T04:05:11.793Z,30.35
2023-05-15T04:07:40.759Z,30.22
2023-05-15T04:10:10.161Z,30.70
2023-05-15T04:12:39.301Z,31.09
2023-05-15T04:15:22.481Z,31.08
2023-05-15T04:17:54.107Z,31.04
2023-05-15T04:20:25.198Z,31.28
2023-05-15T04:22:55.024Z,30.89
2023-05-15T04:25:25.490Z,30.58
2023-05-15T04:27:54.776Z,28.89
2023-05-15T04:30:24.066Z,29.85
2023-05-15T04:32:53.285Z,30.02
2023-05-15T04:35:22.392Z,29.70
2023-05-15T04:37:51.503Z,29.35
2023-05-15T04:40:20.415Z,29.15
2023-05-15T04:42:49.696Z,28.94
2023-05-15T04:45:19.388Z,29.08
2023-05-15T04:47:53.515Z,28.68
2023-05-15T04:50:23.156Z,28.46
2023-05-15T04:52:52.513Z,27.31
2023-05-15T04:55:22.074Z,27.65
2023-05-15T04:57:52.441Z,27.83
2023-05-15T05:00:21.713Z,27.77
2023-05-15T05:11:40.297Z,26.85
2023-05-15T05:14:09.504Z,26.78
2023-05-15T05:16:38.717Z,27.52
2023-05-15T05:19:08.137Z,25.87
2023-05-15T05:21:37.142Z,26.56
2023-05-15T05:24:06.372Z,26.27
2023-05-15T05:26:35.426Z,25.09
2023-05-15T05:29:04.904Z,24.15
2023-05-15T05:31:34.327Z,24.12
2023-05-15T05:34:03.875Z,24.57
2023-05-15T05:36:32.985Z,23.74
2023-05-15T05:39:02.442Z,23.42
2023-05-15T05:41:31.869Z,23.80
2023-05-15T05:44:01.351Z,23.67
2023-05-15T05:46:30.669Z,22.57
2023-05-15T05:49:05.721Z,22.32
2023-05-15T05:51:39.905Z,22.40
2023-05-15T05:54:09.267Z,22.21
2023-05-15T05:56:38.353Z,22.80
2023-05-15T05:59:07.553Z,21.95
2023-05-15T06:01:36.686Z,22.04
2023-05-15T06:04:06.164Z,21.19
2023-05-15T06:06:35.715Z,22.53
2023-05-15T06:09:06.826Z,22.29
2023-05-15T06:11:41.929Z,22.17
2023-05-15T06:14:13.063Z,22.23
2023-05-15T06:16:42.521Z,22.38
2023-05-15T06:19:12.256Z,21.65
2023-05-15T06:21:42.188Z,21.81
2023-05-15T06:24:11.564Z,22.48
2023-05-15T06:26:40.956Z,21.27
2023-05-15T06:29:10.414Z,22.31
2023-05-15T06:31:40.144Z,20.89
2023-05-15T06:34:09.588Z,21.54
2023-05-15T06:36:39.487Z,21.62
2023-05-15T06:39:11.826Z,21.24
2023-05-15T06:41:41.732Z,21.47
2023-05-15T06:44:15.047Z,21.75
2023-05-15T06:46:48.745Z,21.31
2023-05-15T06:49:20.935Z,21.15
2023-05-15T06:51:51.107Z,21.42
2023-05-15T06:54:21.232Z,20.32
2023-05-15T06:56:51.183Z,20.44
2023-05-15T06:59:24.836Z,18.56
2023-05-15T07:01:58.843Z,19.28
2023-05-15T07:04:32.463Z,19.12
2023-05-15T07:07:04.158Z,19.62
2023-05-15T07:09:34.470Z,18.40
2023-05-15T07:12:05.758Z,19.16
2023-05-15T07:14:36.286Z,19.41
2023-05-15T07:17:08.052Z,19.09
2023-05-15T07:19:39.518Z,18.53
2023-05-15T07:22:12.765Z,17.40
2023-05-15T07:24:43.294Z,16.69
2023-05-15T07:27:14.931Z,17.64
2023-05-15T07:29:45.136Z,16.87
2023-05-15T07:32:15.475Z,16.66
2023-05-15T07:35:04.012Z,16.93
2023-05-15T07:37:36.715Z,16.85
2023-05-15T07:40:08.271Z,17.42
2023-05-15T07:42:38.198Z,17.02
2023-05-15T07:45:11.313Z,16.59
2023-05-15T07:47:57.805Z,16.90
2023-05-15T07:50:41.648Z,15.60
2023-05-15T07:53:11.573Z,15.89
2023-05-15T07:55:42.779Z,16.24
2023-05-15T07:58:13.324Z,16.26
2023-05-15T08:00:43.716Z,16.38
2023-05-15T08:03:14.542Z,16.51
2023-05-15T08:05:44.748Z,16.80
2023-05-15T08:08:22.369Z,18.00
2023-05-15T08:11:03.257Z,14.63
2023-05-15T08:13:37.112Z,15.35
2023-05-15T08:16:07.527Z,15.72
2023-05-15T08:18:40.393Z,15.77
2023-05-15T08:21:18.193Z,16.23
2023-05-15T08:23:48.234Z,15.57
2023-05-15T08:26:18.537Z,15.28
2023-05-15T08:28:50.638Z,14.96
2023-05-15T08:31:20.931Z,15.08
2023-05-15T08:33:51.226Z,14.71
2023-05-15T08:36:24.269Z,15.78
2023-05-15T08:38:54.240Z,14.70
2023-05-15T08:41:50.212Z,15.41
2023-05-15T08:44:29.647Z,15.04
2023-05-15T08:47:01.649Z,14.72
2023-05-15T08:49:51.090Z,13.97
2023-05-15T08:52:24.129Z,15.41
2023-05-15T08:54:55.041Z,14.02
2023-05-15T08:57:27.845Z,15.42
2023-05-15T08:59:59.031Z,15.47
2023-05-15T09:02:29.390Z,15.74
2023-05-15T09:04:59.573Z,15.39
2023-05-15T09:07:31.415Z,14.78
2023-05-15T09:10:03.454Z,14.76
2023-05-15T09:12:36.156Z,15.90
2023-05-15T09:15:19.322Z,14.83
2023-05-15T09:17:54.747Z,15.57
2023-05-15T09:20:30.692Z,15.68
2023-05-15T09:23:04.654Z,16.07
2023-05-15T09:25:41.324Z,15.85
2023-05-15T09:28:15.243Z,16.36
2023-05-15T09:30:45.722Z,16.00
2023-05-15T09:33:18.572Z,16.85
2023-05-15T09:35:52.167Z,16.25
2023-05-15T09:38:25.627Z,16.07
2023-05-15T09:41:19.211Z,16.14
2023-05-15T09:43:59.351Z,15.17
2023-05-15T09:46:45.155Z,16.02
2023-05-15T09:49:18.622Z,16.90
2023-05-15T09:51:55.167Z,16.25
2023-05-15T09:54:32.845Z,16.16
2023-05-15T09:57:16.762Z,15.92
2023-05-15T09:59:54.400Z,16.04
2023-05-15T10:02:41.166Z,15.54
2023-05-15T10:05:31.691Z,16.72
2023-05-15T10:08:26.648Z,15.87
2023-05-15T10:11:11.905Z,16.75
2023-05-15T10:13:48.439Z,15.70
2023-05-15T10:16:37.706Z,15.76
2023-05-15T10:19:28.472Z,15.13
2023-05-15T10:22:08.953Z,16.47
2023-05-15T10:24:55.451Z,15.71
2023-05-15T10:27:42.706Z,16.38
2023-05-15T10:30:20.391Z,16.66
2023-05-15T10:33:42.008Z,16.48
2023-05-15T10:36:43.249Z,16.85
2023-05-15T10:39:23.305Z,15.99
2023-05-15T10:42:00.172Z,16.55
2023-05-15T10:47:38.393Z,16.19
2023-05-15T10:56:22.212Z,17.61
2023-05-15T11:02:02.476Z,17.36
2023-05-15T11:04:46.742Z,17.96
2023-05-15T11:08:14.624Z,18.63
2023-05-15T11:11:08.141Z,18.85
2023-05-15T11:14:53.778Z,17.96
2023-05-15T11:17:36.277Z,16.99
2023-05-15T11:20:20.861Z,17.33
2023-05-15T11:23:04.472Z,18.18
2023-05-15T11:25:47.125Z,17.62
2023-05-15T11:28:32.065Z,18.69
2023-05-15T11:34:17.424Z,17.36
2023-05-15T11:37:34.090Z,17.31
2023-05-15T11:40:22.594Z,18.19
2023-05-15T11:52:44.909Z,18.85
2023-05-15T11:58:31.993Z,18.08
2023-05-15T12:01:18.265Z,18.98
2023-05-15T12:04:31.634Z,17.82
2023-05-15T12:10:57.771Z,18.02
2023-05-15T12:17:21.866Z,18.41
2023-05-15T12:20:56.245Z,18.80
2023-05-15T12:26:50.228Z,18.18
2023-05-15T12:29:41.704Z,18.93
2023-05-15T12:32:26.434Z,19.23
2023-05-15T12:35:13.078Z,19.21
2023-05-15T12:38:11.702Z,19.04
2023-05-15T12:40:55.841Z,19.62
2023-05-15T12:43:38.612Z,19.16
2023-05-15T12:46:38.888Z,19.00
2023-05-15T12:49:14.049Z,20.08
2023-05-15T12:52:07.997Z,20.89
2023-05-15T12:55:00.234Z,19.50
2023-05-15T12:57:36.418Z,20.08
2023-05-15T13:00:22.151Z,20.70
2023-05-15T13:03:24.326Z,21.52
2023-05-15T13:06:21.275Z,21.54
2023-05-15T13:09:04.035Z,20.91
2023-05-15T13:14:46.076Z,20.86
2023-05-15T13:17:24.222Z,20.69
2023-05-15T13:20:20.510Z,20.68
2023-05-15T13:25:59.505Z,20.44
2023-05-15T13:28:59.969Z,21.48
2023-05-15T13:31:51.943Z,21.48
2023-05-15T13:34:31.630Z,20.84
2023-05-15T13:37:06.602Z,20.79
2023-05-15T13:40:09.040Z,20.25
2023-05-15T13:42:44.927Z,21.40
2023-05-15T13:49:28.891Z,22.14
2023-05-15T13:52:44.820Z,21.91
2023-05-15T13:55:40.298Z,22.35
2023-05-15T13:58:24.724Z,22.59
2023-05-15T14:01:20.352Z,22.84
2023-05-15T14:04:00.822Z,22.91
2023-05-15T14:09:33.736Z,23.44
2023-05-15T14:12:10.250Z,23.35
2023-05-15T14:14:57.567Z,23.33
2023-05-15T14:17:37.877Z,24.05
2023-05-15T14:20:16.226Z,24.06
2023-05-15T14:28:51.925Z,24.63
2023-05-15T14:31:32.056Z,24.52
2023-05-15T14:34:39.616Z,24.42
2023-05-15T14:37:43.484Z,24.60
2023-05-15T14:40:33.639Z,23.97
2023-05-15T14:46:27.208Z,24.13
2023-05-15T14:58:31.294Z,24.28
2023-05-15T15:04:09.976Z,24.06
2023-05-15T15:07:18.887Z,24.25
2023-05-15T15:10:07.387Z,24.66
2023-05-15T15:16:04.831Z,24.13
2023-05-15T15:18:41.800Z,24.62
2023-05-15T15:21:41.910Z,24.24
2023-05-15T15:27:34.542Z,24.44
2023-05-15T15:30:40.068Z,24.25
2023-05-15T15:33:41.395Z,23.99
2023-05-15T15:36:34.668Z,24.36
2023-05-15T15:39:26.375Z,24.02
2023-05-15T15:42:14.990Z,24.38
2023-05-15T15:48:10.444Z,24.08
2023-05-15T15:54:11.898Z,24.27
2023-05-15T16:00:15.043Z,25.30
2023-05-15T16:06:08.981Z,25.14
2023-05-15T16:12:20.622Z,26.41
2023-05-15T16:18:01.758Z,27.02
2023-05-15T16:29:43.447Z,26.44
2023-05-15T16:32:53.905Z,26.15
2023-05-15T16:36:04.460Z,26.45
2023-05-15T16:42:04.712Z,26.86
2023-05-15T16:45:25.535Z,26.91
2023-05-15T16:48:27.342Z,26.94
2023-05-15T16:51:15.226Z,26.54
2023-05-15T16:56:48.743Z,26.50
2023-05-15T17:03:15.430Z,26.29
2023-05-15T17:06:20.173Z,27.29
2023-05-15T17:09:14.493Z,26.61
2023-05-15T17:12:27.254Z,26.63
2023-05-15T17:15:19.080Z,26.51
2023-05-15T17:18:36.605Z,25.92
2023-05-15T17:21:40.539Z,26.21
2023-05-15T17:24:18.507Z,25.86
2023-05-15T17:27:13.652Z,26.22
2023-05-15T17:30:06.037Z,25.97
2023-05-15T17:39:20.318Z,26.18
2023-05-15T17:48:17.719Z,25.58
2023-05-15T17:51:17.795Z,25.40
2023-05-15T17:56:52.620Z,25.50
2023-05-15T18:09:13.378Z,26.15
2023-05-15T18:11:59.121Z,26.22
2023-05-15T18:17:57.215Z,26.27
2023-05-15T18:20:47.640Z,26.20
2023-05-15T18:23:26.521Z,26.08
2023-05-15T18:26:14.354Z,26.14
2023-05-15T18:35:12.269Z,26.85
2023-05-15T18:41:05.830Z,26.45
2023-05-15T18:43:39.925Z,26.38
2023-05-15T18:49:27.337Z,26.38
2023-05-15T18:55:32.948Z,26.98
2023-05-15T18:58:37.026Z,27.48
2023-05-15T19:01:12.656Z,27.41
2023-05-15T19:04:00.660Z,27.65
2023-05-15T19:06:42.482Z,27.73
2023-05-15T19:09:19.371Z,27.79
2023-05-15T19:11:59.130Z,27.50
2023-05-15T19:15:04.467Z,28.16
2023-05-15T19:17:43.766Z,27.82
2023-05-15T19:20:30.522Z,27.97
2023-05-15T19:26:27.869Z,27.48
2023-05-15T19:29:16.153Z,27.56
2023-05-15T19:31:52.655Z,27.62
2023-05-15T19:34:37.357Z,27.69
2023-05-15T19:37:15.222Z,27.82
2023-05-15T19:39:52.829Z,27.65
2023-05-15T19:42:33.822Z,27.59
2023-05-15T19:45:15.644Z,28.10
2023-05-15T19:50:58.738Z,27.82
2023-05-15T19:53:54.356Z,28.57
2023-05-15T19:56:34.087Z,28.77
2023-05-15T19:59:06.990Z,28.59
2023-05-15T20:11:10.401Z,29.03
2023-05-15T20:22:50.681Z,29.39
2023-05-15T20:25:34.598Z,28.72
2023-05-15T20:28:12.936Z,28.88
2023-05-15T20:30:47.295Z,28.63
2023-05-15T20:33:37.419Z,28.91
2023-05-15T20:36:30.720Z,28.85
2023-05-15T20:39:29.413Z,28.89
2023-05-15T20:42:21.709Z,29.03
2023-05-15T20:45:12.429Z,28.80
2023-05-15T20:48:16.814Z,29.00
2023-05-15T20:51:09.868Z,29.14
2023-05-15T20:54:09.669Z,28.81
2023-05-15T20:57:04.780Z,29.25
2023-05-15T21:00:02.665Z,28.89
2023-05-15T21:06:09.673Z,29.02
2023-05-15T21:11:53.287Z,29.88
2023-05-15T21:17:33.953Z,29.69
2023-05-15T21:20:19.038Z,30.02
2023-05-15T21:23:18.610Z,29.28
2023-05-15T21:26:06.840Z,29.06
2023-05-15T21:28:44.785Z,29.13
2023-05-15T21:31:20.166Z,30.03
2023-05-15T21:36:50.055Z,30.23
2023-05-15T21:39:24.366Z,29.83
2023-05-15T21:45:06.673Z,29.98
2023-05-15T21:47:49.686Z,29.79
2023-05-15T21:53:24.962Z,29.34
2023-05-15T21:56:11.230Z,29.79
2023-05-15T21:58:43.674Z,29.76
2023-05-15T22:01:35.742Z,30.25
2023-05-15T22:04:10.358Z,31.65
2023-05-15T22:06:45.556Z,30.95
2023-05-15T22:09:17.986Z,31.23
2023-05-15T22:11:57.624Z,30.49
2023-05-15T22:14:54.443Z,31.27
2023-05-15T22:17:39.061Z,31.10
2023-05-15T22:20:13.613Z,31.89
2023-05-15T22:22:45.911Z,31.21
2023-05-15T22:25:18.332Z,32.72
2023-05-15T22:27:50.838Z,32.17
2023-05-15T22:30:23.104Z,31.31
2023-05-15T22:35:52.503Z,30.92
2023-05-15T22:38:42.716Z,30.81
2023-05-15T22:41:20.540Z,30.80
2023-05-15T22:43:52.928Z,30.60
2023-05-15T22:46:40.180Z,29.97
2023-05-15T22:49:25.614Z,30.13
2023-05-15T22:52:22.677Z,30.29
2023-05-15T22:55:16.717Z,30.89
2023-05-15T22:57:51.123Z,30.57
2023-05-15T23:00:23.256Z,31.08
2023-05-15T23:02:57.178Z,30.88
2023-05-15T23:05:30.107Z,31.02
2023-05-15T23:11:05.534Z,32.97
2023-05-15T23:13:49.076Z,32.77
2023-05-15T23:19:40.863Z,31.70
2023-05-15T23:22:25.269Z,32.18
2023-05-15T23:24:57.809Z,32.51
2023-05-15T23:27:27.747Z,32.38
2023-05-15T23:29:58.619Z,33.13
2023-05-15T23:32:32.250Z,33.32
2023-05-15T23:35:04.508Z,33.01
2023-05-15T23:38:01.351Z,32.52
2023-05-15T23:40:41.989Z,33.44
2023-05-15T23:43:16.664Z,32.97
2023-05-15T23:45:55.375Z,32.37
2023-05-15T23:48:34.624Z,32.85
2023-05-15T23:51:12.440Z,33.23
2023-05-15T23:53:54.816Z,33.09
2023-05-15T23:56:28.398Z,33.77
2023-05-15T23:59:01.060Z,34.12
